createdAt,value
2017-09-28T00:01:44.467Z,34.23
2017-09-28T00:04:11.259Z,29.97
2017-09-28T00:06:38.204Z,28.10
2017-09-28T00:09:04.970Z,37.07
2017-09-28T00:11:31.751Z,35.80
2017-09-28T00:13:58.501Z,26.60
2017-09-28T00:16:25.274Z,29.53
2017-09-28T00:18:52.060Z,29.23
2017-09-28T00:21:18.821Z,37.53
2017-09-28T00:23:45.606Z,30.00
2017-09-28T00:26:12.414Z,28.47
2017-09-28T00:28:39.889Z,32.67
2017-09-28T00:31:06.690Z,32.67
2017-09-28T00:33:33.514Z,28.37
2017-09-28T00:36:00.696Z,36.80
2017-09-28T00:38:27.499Z,37.60
2017-09-28T00:40:54.291Z,28.73
2017-09-28T00:43:21.086Z,27.67
2017-09-28T00:45:47.853Z,25.60
2017-09-28T00:48:14.734Z,29.80
2017-09-28T00:50:41.492Z,30.83
2017-09-28T00:53:08.239Z,34.37
2017-09-28T00:55:35.085Z,28.90
2017-09-28T00:58:01.856Z,29.17
2017-09-28T01:00:28.598Z,29.00
2017-09-28T01:02:55.457Z,30.37
2017-09-28T01:05:22.237Z,27.67
2017-09-28T01:07:48.994Z,31.70
2017-09-28T01:10:15.827Z,28.00
2017-09-28T01:12:42.631Z,29.27
2017-09-28T01:15:09.379Z,26.27
2017-09-28T01:17:36.192Z,28.10
2017-09-28T01:20:02.972Z,29.50
2017-09-28T01:22:29.759Z,23.13
2017-09-28T01:24:56.566Z,25.53
2017-09-28T01:27:24.037Z,36.13
2017-09-28T01:29:50.834Z,26.53
2017-09-28T01:32:17.639Z,29.63
2017-09-28T01:34:44.415Z,30.10
2017-09-28T01:37:11.197Z,28.20
2017-09-28T01:39:38.015Z,24.47
2017-09-28T01:42:05.589Z,26.20
2017-09-28T01:44:32.853Z,25.60
2017-09-28T01:47:00.387Z,26.70
2017-09-28T01:49:27.167Z,32.10
2017-09-28T01:51:53.957Z,28.27
2017-09-28T01:54:20.774Z,26.37
2017-09-28T01:56:48.265Z,28.97
2017-09-28T01:59:15.045Z,26.53
2017-09-28T02:01:41.841Z,25.90
2017-09-28T02:04:08.633Z,23.67
2017-09-28T02:06:35.411Z,31.00
2017-09-28T02:09:02.219Z,29.83
2017-09-28T02:11:29.493Z,24.03
2017-09-28T02:13:56.270Z,24.30
2017-09-28T02:16:23.079Z,26.33
2017-09-28T02:18:49.866Z,24.60
2017-09-28T02:21:16.654Z,31.00
2017-09-28T02:23:43.485Z,25.97
2017-09-28T02:26:10.283Z,34.60
2017-09-28T02:28:37.058Z,28.20
2017-09-28T02:31:04.198Z,27.60
2017-09-28T02:33:30.977Z,26.10
2017-09-28T02:35:57.752Z,32.63
2017-09-28T02:38:24.579Z,27.77
2017-09-28T02:40:51.664Z,26.00
2017-09-28T02:43:18.417Z,36.60
2017-09-28T02:45:45.224Z,36.57
2017-09-28T02:48:12.014Z,28.13
2017-09-28T02:50:38.767Z,28.00
2017-09-28T02:53:05.548Z,30.10
2017-09-28T02:55:32.319Z,31.07
2017-09-28T02:57:59.081Z,33.47
2017-09-28T03:00:26.824Z,29.37
2017-09-28T03:02:53.572Z,27.03
2017-09-28T03:05:20.355Z,25.90
2017-09-28T03:07:47.158Z,25.07
2017-09-28T03:10:13.922Z,28.03
2017-09-28T03:12:40.680Z,25.53
2017-09-28T03:15:07.463Z,31.87
2017-09-28T03:17:34.246Z,29.00
2017-09-28T03:20:01.260Z,28.27
2017-09-28T03:22:28.066Z,26.87
2017-09-28T03:24:54.846Z,28.50
2017-09-28T03:27:21.608Z,27.80
2017-09-28T03:29:48.405Z,28.13
2017-09-28T03:32:15.151Z,32.13
2017-09-28T03:34:41.918Z,30.10
2017-09-28T03:37:08.700Z,29.43
2017-09-28T03:39:35.457Z,28.40
2017-09-28T03:42:02.221Z,26.63
2017-09-28T03:44:29.031Z,34.10
2017-09-28T03:46:55.779Z,26.53
2017-09-28T03:49:22.526Z,27.50
2017-09-28T03:51:49.323Z,29.70
2017-09-28T03:54:16.072Z,35.03
2017-09-28T03:56:42.828Z,29.67
2017-09-28T03:59:09.627Z,33.40
2017-09-28T04:01:36.411Z,28.23
2017-09-28T04:04:03.187Z,33.77
2017-09-28T04:06:29.984Z,29.50
2017-09-28T04:08:56.750Z,30.80
2017-09-28T04:11:23.523Z,27.83
2017-09-28T04:13:50.326Z,30.63
2017-09-28T04:16:17.076Z,33.30
2017-09-28T04:18:43.842Z,30.00
2017-09-28T04:21:10.634Z,28.90
2017-09-28T04:23:37.443Z,33.63
2017-09-28T04:26:04.320Z,37.37
2017-09-28T04:28:31.147Z,34.27
2017-09-28T04:30:57.913Z,31.47
2017-09-28T04:33:24.676Z,34.10
2017-09-28T04:35:51.487Z,32.83
2017-09-28T04:38:18.872Z,33.00
2017-09-28T04:40:45.630Z,33.67
2017-09-28T04:43:12.425Z,32.23
2017-09-28T04:45:39.189Z,31.97
2017-09-28T04:48:05.932Z,40.60
2017-09-28T04:50:32.722Z,32.77
2017-09-28T04:52:59.494Z,33.93
2017-09-28T04:55:26.245Z,31.50
2017-09-28T04:57:53.036Z,32.00
2017-09-28T05:00:19.802Z,35.77
2017-09-28T05:02:46.758Z,33.47
2017-09-28T05:05:13.539Z,33.33
2017-09-28T05:07:41.345Z,30.50
2017-09-28T05:10:08.118Z,34.13
2017-09-28T05:12:35.147Z,33.03
2017-09-28T05:15:02.588Z,34.93
2017-09-28T05:17:29.358Z,43.57
2017-09-28T05:19:56.162Z,28.90
2017-09-28T05:22:22.927Z,35.73
2017-09-28T05:24:49.695Z,31.67
2017-09-28T05:27:16.498Z,35.90
2017-09-28T05:29:43.258Z,34.33
2017-09-28T05:32:10.028Z,43.30
2017-09-28T05:34:36.833Z,34.47
2017-09-28T05:37:03.645Z,34.93
2017-09-28T05:39:30.397Z,39.77
2017-09-28T05:41:57.228Z,36.10
2017-09-28T05:44:24.551Z,35.57
2017-09-28T05:46:51.327Z,31.63
2017-09-28T05:49:18.170Z,29.87
2017-09-28T05:51:44.995Z,31.00
2017-09-28T05:54:12.541Z,33.00
2017-09-28T05:56:39.966Z,32.37
2017-09-28T05:59:06.745Z,31.27
2017-09-28T06:01:33.573Z,31.93
2017-09-28T06:04:00.407Z,32.30
2017-09-28T06:06:27.248Z,33.23
2017-09-28T06:08:53.992Z,35.70
2017-09-28T06:11:20.870Z,34.00
2017-09-28T06:13:47.627Z,34.17
2017-09-28T06:16:14.372Z,35.50
2017-09-28T06:18:51.119Z,33.10
2017-09-28T06:21:17.890Z,36.42
2017-09-28T06:23:44.636Z,40.00
2017-09-28T06:26:11.960Z,30.53
2017-09-28T06:28:38.709Z,47.60
2017-09-28T06:31:05.478Z,35.50
2017-09-28T06:33:32.274Z,43.77
2017-09-28T06:35:59.016Z,40.37
2017-09-28T06:38:25.771Z,48.93
2017-09-28T06:40:52.584Z,49.47
2017-09-28T06:43:19.331Z,51.77
2017-09-28T06:45:46.112Z,52.70
2017-09-28T06:48:12.945Z,58.63
2017-09-28T06:50:39.699Z,53.67
2017-09-28T06:53:06.476Z,62.27
2017-09-28T06:55:33.275Z,55.93
2017-09-28T06:58:00.025Z,71.47
2017-09-28T07:00:26.763Z,69.77
2017-09-28T07:02:53.568Z,64.30
2017-09-28T07:05:20.320Z,75.87
2017-09-28T07:07:47.069Z,68.93
2017-09-28T07:10:14.242Z,56.10
2017-09-28T07:12:40.983Z,53.60
2017-09-28T07:15:07.744Z,54.13
2017-09-28T07:17:34.528Z,50.87
2017-09-28T07:20:01.280Z,45.83
2017-09-28T07:22:28.043Z,38.43
2017-09-28T07:24:54.832Z,40.03
2017-09-28T07:27:21.579Z,52.17
2017-09-28T07:29:48.361Z,40.50
2017-09-28T07:32:15.172Z,44.43
2017-09-28T07:34:41.970Z,36.23
2017-09-28T07:37:09.458Z,41.00
2017-09-28T07:39:36.240Z,45.63
2017-09-28T07:42:03.007Z,36.63
2017-09-28T07:44:29.761Z,31.67
2017-09-28T07:46:56.586Z,38.07
2017-09-28T07:49:23.335Z,41.27
2017-09-28T07:51:50.094Z,39.43
2017-09-28T07:54:17.497Z,37.67
2017-09-28T07:56:44.262Z,43.73
2017-09-28T07:59:11.039Z,34.43
2017-09-28T08:01:37.820Z,38.60
2017-09-28T08:04:04.598Z,37.17
2017-09-28T08:06:31.359Z,34.63
2017-09-28T08:08:58.141Z,35.03
2017-09-28T08:11:25.373Z,37.77
2017-09-28T08:13:52.147Z,43.47
2017-09-28T08:16:18.956Z,35.93
2017-09-28T08:18:45.728Z,42.20
2017-09-28T08:21:12.518Z,40.43
2017-09-28T08:23:39.352Z,37.43
2017-09-28T08:26:06.130Z,38.13
2017-09-28T08:28:32.896Z,36.97
2017-09-28T08:30:59.702Z,40.70
2017-09-28T08:33:26.475Z,35.43
2017-09-28T08:35:54.201Z,34.23
2017-09-28T08:38:21.006Z,42.53
2017-09-28T08:40:47.776Z,34.80
2017-09-28T08:43:14.548Z,32.30
2017-09-28T08:45:41.351Z,36.03
2017-09-28T08:48:08.109Z,30.80
2017-09-28T08:50:34.877Z,28.80
2017-09-28T08:53:01.682Z,31.97
2017-09-28T08:55:29.246Z,34.90
2017-09-28T08:57:56.014Z,36.53
2017-09-28T09:00:22.795Z,37.87
2017-09-28T09:02:49.562Z,35.90
2017-09-28T09:05:16.338Z,39.33
2017-09-28T09:07:43.137Z,35.57
2017-09-28T09:10:09.892Z,37.87
2017-09-28T09:12:37.034Z,41.37
2017-09-28T09:15:03.860Z,43.60
2017-09-28T09:17:30.619Z,38.13
2017-09-28T09:19:57.387Z,37.63
2017-09-28T09:22:24.180Z,43.10
2017-09-28T09:24:50.929Z,41.53
2017-09-28T09:27:17.686Z,39.73
2017-09-28T09:29:44.471Z,41.67
2017-09-28T09:32:11.243Z,39.57
2017-09-28T09:34:38.026Z,38.70
2017-09-28T09:37:04.822Z,41.03
2017-09-28T09:39:31.598Z,37.73
2017-09-28T09:41:58.362Z,35.40
2017-09-28T09:44:25.166Z,35.97
2017-09-28T09:46:51.938Z,43.80
2017-09-28T09:49:18.744Z,31.33
2017-09-28T09:51:45.523Z,31.87
2017-09-28T09:54:12.290Z,29.80
2017-09-28T09:56:39.032Z,30.70
2017-09-28T09:59:05.825Z,28.30
2017-09-28T10:01:32.589Z,27.97
2017-09-28T10:03:59.358Z,28.53
2017-09-28T10:06:26.198Z,25.30
2017-09-28T10:08:55.190Z,30.63
2017-09-28T10:11:26.891Z,25.90
2017-09-28T10:14:06.230Z,31.90
2017-09-28T10:16:33.010Z,27.20
2017-09-28T10:18:59.829Z,28.03
2017-09-28T10:21:26.642Z,32.43
2017-09-28T10:23:53.432Z,29.50
2017-09-28T10:26:20.645Z,32.13
2017-09-28T10:28:47.927Z,29.60
2017-09-28T10:31:14.730Z,33.47
2017-09-28T10:33:42.520Z,25.33
2017-09-28T10:36:09.285Z,28.60
2017-09-28T10:38:36.068Z,32.80
2017-09-28T10:41:02.807Z,31.60
2017-09-28T10:43:30.321Z,26.13
2017-09-28T10:45:57.099Z,37.33
2017-09-28T10:48:23.846Z,27.93
2017-09-28T10:50:50.620Z,33.67
2017-09-28T10:53:17.428Z,34.77
2017-09-28T10:55:44.190Z,37.67
2017-09-28T10:58:10.983Z,31.73
2017-09-28T11:00:37.796Z,31.10
2017-09-28T11:03:05.218Z,33.40
2017-09-28T11:05:31.981Z,34.97
2017-09-28T11:07:58.767Z,30.53
2017-09-28T11:10:25.515Z,37.63
2017-09-28T11:12:52.278Z,31.50
2017-09-28T11:15:19.060Z,32.30
2017-09-28T11:17:45.813Z,39.70
2017-09-28T11:20:13.104Z,32.43
2017-09-28T11:22:40.538Z,31.40
2017-09-28T11:25:07.307Z,36.50
2017-09-28T11:27:34.048Z,30.27
2017-09-28T11:30:00.851Z,34.33
2017-09-28T11:32:27.619Z,31.07
2017-09-28T11:34:55.012Z,30.07
2017-09-28T11:37:21.796Z,28.57
2017-09-28T11:39:48.555Z,32.20
2017-09-28T11:44:48.517Z,27.27
2017-09-28T11:47:15.263Z,25.80
2017-09-28T11:49:42.259Z,22.90
2017-09-28T11:52:09.059Z,28.70
2017-09-28T11:54:35.826Z,28.47
2017-09-28T11:57:02.587Z,29.20
2017-09-28T11:59:30.157Z,28.33
2017-09-28T12:01:56.944Z,25.83
2017-09-28T12:04:23.702Z,26.83
2017-09-28T12:06:50.479Z,30.80
2017-09-28T12:09:17.246Z,27.60
2017-09-28T12:11:44.600Z,28.93
2017-09-28T12:14:11.711Z,25.57
2017-09-28T12:16:38.476Z,29.40
2017-09-28T12:19:05.262Z,31.20
2017-09-28T12:21:32.062Z,25.80
2017-09-28T12:23:58.851Z,30.03
2017-09-28T12:26:25.634Z,27.30
2017-09-28T12:28:52.470Z,25.80
2017-09-28T12:31:19.216Z,26.87
2017-09-28T12:33:45.976Z,29.77
2017-09-28T12:36:12.763Z,28.70
2017-09-28T12:38:39.528Z,32.93
2017-09-28T12:41:06.279Z,27.77
2017-09-28T12:43:33.074Z,28.20
2017-09-28T12:45:59.828Z,35.13
2017-09-28T12:48:26.695Z,27.23
2017-09-28T12:50:53.548Z,29.60
2017-09-28T12:53:20.296Z,29.23
2017-09-28T12:55:47.069Z,29.13
2017-09-28T12:58:14.246Z,30.93
2017-09-28T13:00:41.024Z,36.30
2017-09-28T13:03:07.796Z,29.20
2017-09-28T13:05:34.603Z,32.43
2017-09-28T13:08:01.370Z,31.90
2017-09-28T13:10:28.996Z,37.93
2017-09-28T13:12:55.838Z,34.97
2017-09-28T13:15:23.230Z,35.67
2017-09-28T13:17:50.002Z,34.40
2017-09-28T13:20:16.977Z,41.40
2017-09-28T13:22:43.768Z,33.17
2017-09-28T13:25:10.569Z,44.20
2017-09-28T13:27:37.375Z,34.13
2017-09-28T13:30:04.227Z,36.90
2017-09-28T13:32:31.006Z,37.37
2017-09-28T13:34:57.845Z,45.23
2017-09-28T13:37:24.698Z,33.23
2017-09-28T13:39:51.504Z,40.07
2017-09-28T13:42:18.288Z,35.83
2017-09-28T13:44:45.056Z,40.13
2017-09-28T13:47:11.834Z,34.83
2017-09-28T13:49:38.647Z,41.00
2017-09-28T13:52:05.413Z,38.30
2017-09-28T13:54:32.167Z,43.47
2017-09-28T13:56:58.999Z,40.33
2017-09-28T13:59:25.756Z,46.00
2017-09-28T14:01:52.545Z,40.10
2017-09-28T14:04:19.366Z,44.23
2017-09-28T14:06:46.120Z,40.53
2017-09-28T14:09:12.931Z,47.20
2017-09-28T14:11:39.707Z,41.67
2017-09-28T14:14:06.517Z,40.53
2017-09-28T14:16:33.272Z,44.80
2017-09-28T14:19:00.098Z,40.70
2017-09-28T14:21:26.933Z,42.50
2017-09-28T14:23:53.715Z,46.53
2017-09-28T14:26:20.515Z,47.83
2017-09-28T14:28:47.296Z,42.23
2017-09-28T14:31:14.079Z,39.00
2017-09-28T14:33:40.899Z,42.67
2017-09-28T14:36:07.671Z,38.57
2017-09-28T14:38:34.429Z,42.00
2017-09-28T14:41:01.230Z,42.77
2017-09-28T14:43:28.002Z,44.40
2017-09-28T14:45:54.772Z,49.47
2017-09-28T14:48:21.579Z,42.47
2017-09-28T14:50:48.951Z,43.20
2017-09-28T14:53:15.715Z,43.33
2017-09-28T14:55:42.499Z,46.30
2017-09-28T14:58:09.267Z,38.23
2017-09-28T15:00:36.059Z,41.63
2017-09-28T15:03:02.901Z,41.23
2017-09-28T15:05:29.827Z,46.50
2017-09-28T15:07:56.778Z,39.23
2017-09-28T15:10:23.645Z,42.40
2017-09-28T15:12:50.414Z,46.90
2017-09-28T15:15:17.262Z,44.23
2017-09-28T15:17:44.063Z,37.40
2017-09-28T15:20:10.844Z,43.57
2017-09-28T15:22:37.710Z,44.70
2017-09-28T15:25:04.495Z,37.13
2017-09-28T15:27:31.386Z,39.70
2017-09-28T15:29:58.801Z,44.03
2017-09-28T15:32:25.750Z,40.03
2017-09-28T15:34:52.692Z,36.80
2017-09-28T15:37:19.524Z,40.40
2017-09-28T15:39:46.397Z,39.97
2017-09-28T15:42:13.189Z,44.43
2017-09-28T15:44:40.004Z,34.93
2017-09-28T15:47:07.066Z,40.03
2017-09-28T15:49:33.862Z,37.90
2017-09-28T15:52:00.638Z,38.87
2017-09-28T15:54:27.427Z,40.77
2017-09-28T15:56:54.172Z,37.50
2017-09-28T15:59:20.947Z,41.23
2017-09-28T16:01:47.875Z,37.57
2017-09-28T16:04:14.540Z,42.90
2017-09-28T16:06:41.310Z,35.40
2017-09-28T16:09:08.088Z,35.70
2017-09-28T16:11:34.840Z,41.83
2017-09-28T16:14:01.593Z,41.70
2017-09-28T16:16:29.257Z,40.07
2017-09-28T16:18:56.013Z,45.43
2017-09-28T16:21:22.786Z,31.50
2017-09-28T16:23:49.620Z,34.10
2017-09-28T16:26:16.457Z,34.53
2017-09-28T16:28:43.231Z,38.53
2017-09-28T16:31:10.035Z,38.60
2017-09-28T16:33:37.272Z,38.33
2017-09-28T16:36:04.060Z,36.90
2017-09-28T16:38:30.884Z,37.03
2017-09-28T16:40:57.660Z,33.93
2017-09-28T16:43:24.416Z,35.50
2017-09-28T16:45:51.237Z,39.87
2017-09-28T16:48:18.424Z,39.63
2017-09-28T16:50:45.197Z,37.93
2017-09-28T16:53:11.980Z,35.10
2017-09-28T16:55:38.740Z,40.60
2017-09-28T16:58:05.493Z,41.77
2017-09-28T17:00:32.302Z,39.67
2017-09-28T17:02:59.274Z,36.40
2017-09-28T17:05:26.012Z,37.63
2017-09-28T17:07:52.797Z,41.57
2017-09-28T17:10:19.575Z,38.80
2017-09-28T17:12:46.388Z,44.70
2017-09-28T17:15:13.223Z,39.47
2017-09-28T17:17:40.024Z,41.33
2017-09-28T17:20:06.930Z,45.90
2017-09-28T17:22:33.826Z,35.60
2017-09-28T17:25:00.902Z,36.20
2017-09-28T17:27:27.671Z,37.37
2017-09-28T17:29:54.494Z,43.53
2017-09-28T17:32:21.894Z,39.43
2017-09-28T17:34:48.789Z,37.13
2017-09-28T17:37:16.107Z,41.03
2017-09-28T17:39:42.874Z,40.20
2017-09-28T17:42:09.655Z,42.30
2017-09-28T17:44:36.497Z,42.53
2017-09-28T17:47:03.256Z,42.57
2017-09-28T17:49:30.046Z,44.53
2017-09-28T17:51:56.879Z,36.93
2017-09-28T17:54:23.647Z,44.57
2017-09-28T17:56:50.411Z,43.33
2017-09-28T17:59:17.211Z,43.80
2017-09-28T18:01:43.965Z,42.17
2017-09-28T18:04:11.127Z,47.33
2017-09-28T18:06:37.948Z,46.87
2017-09-28T18:09:04.866Z,44.03
2017-09-28T18:11:31.647Z,44.23
2017-09-28T18:13:58.472Z,41.80
2017-09-28T18:16:25.260Z,49.03
2017-09-28T18:18:52.075Z,41.07
2017-09-28T18:21:18.894Z,41.33
2017-09-28T18:23:45.649Z,45.30
2017-09-28T18:26:12.463Z,41.13
2017-09-28T18:28:39.255Z,44.20
2017-09-28T18:31:06.001Z,50.83
2017-09-28T18:33:32.758Z,48.87
2017-09-28T18:35:59.567Z,43.93
2017-09-28T18:38:26.339Z,49.23
2017-09-28T18:40:53.083Z,50.27
2017-09-28T18:43:19.888Z,54.47
2017-09-28T18:45:46.648Z,51.07
2017-09-28T18:48:13.440Z,50.30
2017-09-28T18:50:40.282Z,54.47
2017-09-28T18:53:07.691Z,53.13
2017-09-28T18:55:34.529Z,51.47
2017-09-28T18:58:01.317Z,55.40
2017-09-28T19:00:28.092Z,48.03
2017-09-28T19:02:54.887Z,55.87
2017-09-28T19:05:21.726Z,53.30
2017-09-28T19:07:48.520Z,52.07
2017-09-28T19:10:15.289Z,50.33
2017-09-28T19:12:42.098Z,56.60
2017-09-28T19:15:08.865Z,55.37
2017-09-28T19:17:35.651Z,48.83
2017-09-28T19:20:02.455Z,60.30
2017-09-28T19:22:30.040Z,53.87
2017-09-28T19:24:57.399Z,54.33
2017-09-28T19:27:24.200Z,55.37
2017-09-28T19:29:51.006Z,55.53
2017-09-28T19:32:18.071Z,55.37
2017-09-28T19:34:44.868Z,54.80
2017-09-28T19:37:11.661Z,50.77
2017-09-28T19:39:38.414Z,58.37
2017-09-28T19:42:05.356Z,57.90
2017-09-28T19:44:32.121Z,51.10
2017-09-28T19:46:59.286Z,50.30
2017-09-28T19:49:26.421Z,52.93
2017-09-28T19:51:53.173Z,55.13
2017-09-28T19:54:20.635Z,54.23
2017-09-28T19:56:47.509Z,63.50
2017-09-28T19:59:14.275Z,52.40
2017-09-28T20:01:41.164Z,49.60
2017-09-28T20:04:08.594Z,54.97
2017-09-28T20:06:35.366Z,56.57
2017-09-28T20:09:02.881Z,57.47
2017-09-28T20:11:30.376Z,62.33
2017-09-28T20:13:57.174Z,64.03
2017-09-28T20:16:23.983Z,66.60
2017-09-28T20:18:50.824Z,65.73
2017-09-28T20:21:17.706Z,63.20
2017-09-28T20:23:44.466Z,62.77
2017-09-28T20:26:11.286Z,67.97
2017-09-28T20:28:38.114Z,59.23
2017-09-28T20:31:04.954Z,64.30
2017-09-28T20:33:31.771Z,61.37
2017-09-28T20:35:58.536Z,66.20
2017-09-28T20:38:25.292Z,63.73
2017-09-28T20:40:52.076Z,55.77
2017-09-28T20:43:18.843Z,59.83
2017-09-28T20:45:45.853Z,66.20
2017-09-28T20:48:12.686Z,59.13
2017-09-28T20:50:39.464Z,57.50
2017-09-28T20:53:06.235Z,58.40
2017-09-28T20:55:33.023Z,67.87
2017-09-28T20:57:59.862Z,64.50
2017-09-28T21:00:27.514Z,64.67
2017-09-28T21:02:54.329Z,62.43
2017-09-28T21:05:21.119Z,68.23
2017-09-28T21:07:48.110Z,65.37
2017-09-28T21:10:14.908Z,62.63
2017-09-28T21:12:41.654Z,66.30
2017-09-28T21:15:08.423Z,65.20
2017-09-28T21:17:35.393Z,73.60
2017-09-28T21:20:02.148Z,68.30
2017-09-28T21:22:28.980Z,63.43
2017-09-28T21:24:55.785Z,60.33
2017-09-28T21:27:22.559Z,73.10
2017-09-28T21:29:49.326Z,71.83
2017-09-28T21:32:16.140Z,66.17
2017-09-28T21:34:42.918Z,69.30
2017-09-28T21:37:09.679Z,68.10
2017-09-28T21:39:36.486Z,71.93
2017-09-28T21:42:03.272Z,74.47
2017-09-28T21:44:30.023Z,63.80
2017-09-28T21:46:56.861Z,65.47
2017-09-28T21:49:23.638Z,58.33
2017-09-28T21:51:50.413Z,59.97
2017-09-28T21:54:17.249Z,58.80
2017-09-28T21:56:44.047Z,62.10
2017-09-28T21:59:10.902Z,53.03
2017-09-28T22:01:37.710Z,55.53
2017-09-28T22:04:05.282Z,73.43
2017-09-28T22:06:32.058Z,63.27
2017-09-28T22:08:58.920Z,66.67
2017-09-28T22:11:25.687Z,60.30
2017-09-28T22:13:52.460Z,121.07
2017-09-28T22:16:19.349Z,63.30
2017-09-28T22:18:46.146Z,62.13
2017-09-28T22:21:12.931Z,54.00
2017-09-28T22:23:39.789Z,54.10
2017-09-28T22:26:06.658Z,59.50
2017-09-28T22:28:33.479Z,51.23
2017-09-28T22:31:00.541Z,55.30
2017-09-28T22:33:27.331Z,51.97
2017-09-28T22:35:54.086Z,52.03
2017-09-28T22:38:21.084Z,50.47
2017-09-28T22:40:47.852Z,57.80
2017-09-28T22:43:14.611Z,52.20
2017-09-28T22:45:41.488Z,45.93
2017-09-28T22:48:08.297Z,50.30
2017-09-28T22:50:35.048Z,46.17
2017-09-28T22:53:01.847Z,55.47
2017-09-28T22:55:28.633Z,55.97
2017-09-28T22:57:55.383Z,63.73
2017-09-28T23:00:22.199Z,58.47
2017-09-28T23:02:48.964Z,55.87
2017-09-28T23:05:15.707Z,59.87
2017-09-28T23:07:42.528Z,57.17
2017-09-28T23:10:09.303Z,61.43
2017-09-28T23:12:36.085Z,66.17
2017-09-28T23:15:03.225Z,54.37
2017-09-28T23:17:30.646Z,53.17
2017-09-28T23:19:57.426Z,56.83
2017-09-28T23:22:24.224Z,56.73
2017-09-28T23:24:50.977Z,73.67
2017-09-28T23:27:17.742Z,59.50
2017-09-28T23:29:44.532Z,58.20
2017-09-28T23:32:11.334Z,57.07
2017-09-28T23:34:38.111Z,61.20
2017-09-28T23:37:04.936Z,56.87
2017-09-28T23:39:31.890Z,62.80
2017-09-28T23:41:58.643Z,65.17
2017-09-28T23:44:25.450Z,69.20
2017-09-28T23:46:52.204Z,67.83
2017-09-28T23:49:19.001Z,79.63
2017-09-28T23:51:45.776Z,80.27
2017-09-28T23:54:12.533Z,74.80
2017-09-28T23:56:39.284Z,77.13
2017-09-28T23:59:06.086Z,74.80
